Benicio Quiroga

Olheiro - Independiente
22 Fev 2027
Segunda-feira
Processo

Personalidade

Adaptabilidade (6) Ambição (1) Controvérsia (14) Lealdade (19) Pressão (2) Profissionalismo (11) Espírito Esportivo (2) Temperamento (2)

Perfil

Estilo de Treinamento Democrático
Licença Continental A
Determinação 9
Gestão de Pessoas 12
Motivação 5
Disciplina 7
Satisfação no Trabalho
90%
Fadiga
0%
Função Olheiro
Salário 83.8K p/s
Contrato 14.03.2027

Desempenho

Comportamento Bom
Eficácia do Treinamento
42%
Desenvolvimento do Jogador
40%
Prevenção de Lesões
45%
Implementação Tática
35%

Eventos Recentes

Negociação de contrato iniciada agora
Participou de uma reunião de recrutamento agora
Negociação de contrato iniciada agora
Negociação de contrato iniciada agora
Negociação de contrato iniciada agora
Negociação de contrato iniciada agora
Negociação de contrato iniciada 7d atrás
Avaliou um jogador 7d atrás

Monitorando agora

103
Jogador Clube Status Habilidade Confiança Observado Última observação Último voto
Pablo Solari Spartak Moscow Ativo 128 / 129 40% 1 14.02.2027 -
Marquinhos Spartak Moscow Ativo 131 / 127 40% 1 14.02.2027 -
Petar Stanić Ludogorets Ativo 129 / 147 40% 1 14.02.2027 -
Mduduzi Shabalala Kaizer Chiefs Ativo 117 / 130 40% 2 05.02.2027 -
Sergey Pinyaev Lokomotiv Moscow Ativo 121 / 125 40% 2 05.02.2027 -
Emile Smith Rowe Fulham Ativo 151 / 157 40% 1 05.02.2027 -
Itumeleng Tau Ajax Cape Town Ativo 116 / 133 40% 3 02.02.2027 -
Erick Ngcobo Black Aces Ativo 111 / 103 40% 4 02.02.2027 -
Alejo Dramisino Honved Ativo 128 / 110 40% 5 02.02.2027 -
Haissem Hassan Bloemfontein Celtic Ativo 134 / 150 40% 2 01.02.2027 -
Brian Figueroa Morelia Ativo 106 / 108 40% 2 01.02.2027 -
Jaden Philogene Ipswich Town Ativo 138 / 145 40% 1 01.02.2027 -
José Barreto Fehervar Ativo 109 / 101 40% 4 29.01.2027 -
Relebohile Mofokeng Orlando Pirates Ativo 125 / 115 40% 3 29.01.2027 -
Kyreece Lisbie Colchester United Ativo 101 / 109 40% 1 29.01.2027 -
Job Ochieng Real Sociedad Ativo 112 / 118 40% 2 26.01.2027 -
Lander Astiazarán Real Sociedad Ativo 114 / 124 40% 1 26.01.2027 -
Juan Pablo Gallego Fehervar Ativo 114 / 100 40% 2 14.01.2027 -
Teboho Tau Ajax Cape Town Ativo 114 / 112 40% 2 14.01.2027 -
Santiago Luján Al Ain Ativo 120 / 114 40% 1 14.01.2027 -
Facundo Torres Shakhtar Ativo 129 / 124 40% 2 11.01.2027 -
Stav Toriel Hapoel Tel Aviv Ativo 131 / 114 40% 1 11.01.2027 -
Ronaldo Rostov Ativo 124 / 105 40% 1 11.01.2027 -
Mandla Vilakazi Black Aces Ativo 89 / 113 40% 1 10.01.2027 -
Tiago Esidín Padideh Ativo 101 / 108 40% 2 05.01.2027 -
Nazar Voloshyn Dynamo Kyiv Ativo 126 / 121 40% 1 05.01.2027 -
Akinkunmi Amoo Ismaily Ativo 124 / 125 40% 2 26.12.2026 -
Maximiliano Puig Barracas Central Perdido 108 / 108 76% 1 21.12.2026 Aprovar
Leandro Andrade Polissia Ativo 131 / 148 40% 2 20.12.2026 -
Majid Dejagah Gostaresh Foulad Ativo 121 / 127 40% 3 20.12.2026 -
Lucas Cepeda Elche Ativo 124 / 142 40% 2 18.12.2026 -
Marcelo Flores Tigres Ativo 128 / 132 40% 1 18.12.2026 -
Vinicius Tobias Shakhtar Ativo 136 / 131 40% 1 30.11.2026 -
Youssef Belammari Al Ahly Ativo 131 / 130 40% 1 30.11.2026 -
Alan Velasco Boca Juniors Ativo 127 / 116 40% 1 29.11.2026 -
Veljko Birmančević Ferencvaros Ativo 138 / 143 40% 1 29.11.2026 -
Thomas Carrique Andorra Ativo 124 / 134 40% 5 28.11.2026 -
Agustín Ramírez Inter Ativo 108 / 115 40% 3 27.11.2026 -
Emi Rodriguez Leon Ativo 123 / 138 40% 1 27.11.2026 -
Mateo Fernández Angusht Ativo 85 / 80 40% 1 26.11.2026 -
Mohammad Mehdi Mohebi Persepolis Ativo 122 / 131 40% 1 26.11.2026 -
Reda Khadra Qarabag Ativo 134 / 112 40% 1 25.11.2026 -
Kirill Glebov CSKA Moscow Ativo 131 / 123 40% 1 25.11.2026 -
Mehdi Hashemnejad Tractor Ativo 124 / 110 40% 2 24.11.2026 -
Mauro Arambarri River Plate Ativo 159 / 151 40% 2 23.11.2026 -
Sergej Milinković-Savić Al-Hilal Ativo 162 / 138 40% 1 23.11.2026 -
Marquinhos APOEL Ativo 132 / 147 40% 1 23.11.2026 -
Angelo Gattermayer Wolfsberger AC Ativo 123 / 125 40% 2 20.11.2026 -
Serginho Al Wasl Ativo 132 / 125 40% 1 20.11.2026 -
Ryan Gauld Vancouver Whitecaps Ativo 128 / 115 40% 1 20.11.2026 -
Robert FC Copenhagen Ativo 119 / 121 40% 1 16.11.2026 -
Camilo Durán Bloemfontein Celtic Ativo 122 / 121 40% 2 14.11.2026 -
Nahuel Ulariaga Al Ahli Ativo 119 / 112 40% 2 14.11.2026 -
Carlos Gutiérrez Montana Ativo 95 / 103 40% 1 10.11.2026 -
Mariano Bracamonte Deportivo Riestra Ativo 119 / 111 40% 1 05.11.2026 -
Fashion Sakala Al-Fayha Ativo 128 / 118 40% 1 04.11.2026 -
Nemanja Radonjić Crvena Zvezda Ativo 127 / 134 40% 1 04.11.2026 -
Tomás O'Connor Gimnasia y Esgrima Ativo 120 / 127 40% 2 02.11.2026 -
Alexander Díaz Deportivo Riestra Ativo 118 / 123 40% 2 31.10.2026 -
Oswin Appollis Orlando Pirates Ativo 128 / 113 40% 1 31.10.2026 -
Franco Ibarra Rosario Central Ativo 122 / 136 40% 1 28.10.2026 -
Teboho Mokoena Mamelodi Sundowns Ativo 132 / 130 40% 3 27.10.2026 -
Ángel Correa River Plate Ativo 143 / 139 40% 1 27.10.2026 -
Marcelino Moreno Lanús Ativo 129 / 116 40% 1 26.10.2026 -
Talles Magno New York City Ativo 133 / 128 40% 1 26.10.2026 -
Denis Bouanga Los Angeles Football Club Ativo 130 / 120 40% 1 26.10.2026 -
Alex Luna Instituto Ativo 123 / 127 40% 3 20.10.2026 -
Timi Max Elšnik Crvena Zvezda Ativo 132 / 128 40% 1 20.10.2026 -
Jeon Jin-Woo Albirex Niigata Ativo 120 / 133 40% 1 20.10.2026 -
Jerónimo Porto Lapegüe Slask Ativo 110 / 117 40% 1 20.10.2026 -
Tiago Palacios Estudiantes Ativo 135 / 127 40% 1 16.10.2026 -
Joaquín Gho Argentinos Juniors Ativo 127 / 115 40% 1 13.10.2026 -
Clemente Montes Universidad Catolica Ativo 118 / 108 40% 1 05.10.2026 -
Facundo Mura Inter Miami CF Ativo 117 / 130 40% 1 27.09.2026 -
Ignacio Schor O'Higgins Ativo 123 / 114 40% 1 27.09.2026 -
Ayrton Costa Boca Juniors Ativo 129 / 136 40% 2 26.09.2026 -
Miles Robinson FC Cincinnati Ativo 126 / 149 40% 1 26.09.2026 -
Luca Orellano Monterrey Ativo 134 / 120 40% 1 23.09.2026 -
Brian Gutiérrez Guadalajara Ativo 137 / 138 40% 1 23.09.2026 -
César Huerta Pumas UNAM Ativo 131 / 112 40% 1 23.09.2026 -
Israel Reyes Club America Ativo 128 / 117 40% 1 21.09.2026 -
Luís Esteves Atlas Ativo 123 / 142 40% 1 21.09.2026 -
Justo Giani Universidad Catolica Ativo 117 / 129 40% 1 17.09.2026 -
Javier Altamirano Universidad de Chile Ativo 120 / 124 40% 1 17.09.2026 -
Helinho Toluca Ativo 127 / 118 40% 1 17.09.2026 -
Juan Pablo Domínguez Leon Ativo 120 / 130 40% 1 16.09.2026 -
Fabián Suárez Chalares Aguilas Doradas Ativo 112 / 113 40% 1 16.09.2026 -
Agustín Amado Boston River Ativo 113 / 119 40% 1 16.09.2026 -
Nicolas Ramirez La Equidad Ativo 131 / 141 40% 1 14.09.2026 -
Sebastián Cáceres Club America Ativo 135 / 116 40% 1 14.09.2026 -
Sergio Quintero La Equidad Ativo 138 / 141 40% 1 14.09.2026 -
Erik Lira Cruz Azul Ativo 127 / 146 40% 2 11.09.2026 -
Pablo Maffeo Olympiacos Ativo 135 / 155 40% 2 11.09.2026 -
Yeray Athletic Bilbao Ativo 144 / 135 40% 1 11.09.2026 -
Federico Pereira Toluca Ativo 137 / 115 40% 1 10.09.2026 -
Joaquim Tigres Ativo 121 / 141 40% 1 10.09.2026 -
Santiago Silva Boston River Ativo 122 / 104 40% 2 09.08.2026 -
Chris Brady Chicago Fire Ativo 115 / 115 40% 1 09.08.2026 -
Nicolás Sumavil Platense Ativo 122 / 116 40% 1 06.08.2026 -
Cesar Corona Veracruz Ativo 141 / 125 40% 1 04.08.2026 -
Richard Ledezma Guadalajara Ativo 135 / 151 40% 1 04.08.2026 -
Gonzalo Piovi Cruz Azul Ativo 134 / 129 40% 1 02.08.2026 -
José Gayà Valencia Ativo 144 / 123 40% 1 02.08.2026 -